Time;durP1;ratioP1;P1;durP2;ratioP2;P2;SDS_P1;SDS_P2;PMS_P1;PMS_P2;Temp;Humidity;BMP_temperature;BMP_pressure;BME280_temperature;BME280_humidity;BME280_pressure;Samples;Min_cycle;Max_cycle;Signal;HPM_P1;HPM_P2
2022/05/19 00:02:16;;;;;;;4.70;2.30;;;;;;;22.58;44.31;101958.64;104584;1306;76935;-82
2022/05/19 00:04:54;;;;;;;4.10;1.90;;;;;;;22.58;44.28;101960.62;104636;1306;61310;-82
2022/05/19 00:07:29;;;;;;;5.40;2.00;;;;;;;22.58;44.26;101964.23;104555;1306;61333;-83
2022/05/19 00:10:05;;;;;;;5.50;2.20;;;;;;;22.58;44.33;101965.83;104537;1306;73872;-83
2022/05/19 00:12:36;;;;;;;3.70;2.00;;;;;;;22.58;44.37;101964.59;104648;1306;75703;-83
2022/05/19 00:15:12;;;;;;;3.80;2.10;;;;;;;22.58;44.29;101963.86;104731;1306;61858;-82
2022/05/19 00:17:50;;;;;;;3.70;2.00;;;;;;;22.58;44.28;101963.86;104657;1306;61891;-83
2022/05/19 00:20:40;;;;;;;6.10;2.20;;;;;;;22.57;44.17;101965.18;104839;1305;72673;-83
2022/05/19 00:23:06;;;;;;;3.30;2.00;;;;;;;22.57;44.27;101965.33;104560;1306;75056;-84
2022/05/19 00:25:43;;;;;;;3.70;1.80;;;;;;;22.57;44.24;101966.41;104701;1306;61332;-83
2022/05/19 00:28:09;;;;;;;4.20;2.00;;;;;;;22.57;44.21;101968.94;104714;1306;61262;-83
2022/05/19 00:30:43;;;;;;;4.10;2.00;;;;;;;22.57;44.25;101965.69;104718;1306;69501;-83
2022/05/19 00:33:15;;;;;;;3.60;2.00;;;;;;;22.57;44.19;101967.86;104747;1306;74938;-84
2022/05/19 00:35:52;;;;;;;3.80;1.90;;;;;;;22.57;44.26;101973.77;104744;1306;61180;-85
2022/05/19 00:38:32;;;;;;;3.90;2.20;;;;;;;22.56;44.36;101977.94;104657;1306;61317;-83
2022/05/19 00:40:58;;;;;;;5.10;2.00;;;;;;;22.56;44.13;101976.51;104535;1306;72959;-82
2022/05/19 00:43:35;;;;;;;3.20;1.90;;;;;;;22.56;44.25;101978.30;104556;1306;61267;-84
2022/05/19 00:46:15;;;;;;;3.90;2.00;;;;;;;22.56;44.17;101979.57;104704;1306;60498;-83
2022/05/19 00:48:43;;;;;;;;;;;;;;;22.56;44.25;101978.31;104585;1306;61169;-84
2022/05/19 00:51:14;;;;;;;5.60;2.20;;;;;;;22.53;44.27;101975.08;104589;1306;73992;-86
2022/05/19 00:53:55;;;;;;;3.60;1.90;;;;;;;22.54;44.27;101979.15;104744;1306;74560;-84
2022/05/19 00:56:28;;;;;;;5.50;2.00;;;;;;;22.54;44.38;101980.25;104903;1306;61261;-85
2022/05/19 00:59:11;;;;;;;5.10;2.20;;;;;;;22.54;44.25;101981.30;104609;1307;61288;-84
2022/05/19 01:01:38;;;;;;;4.10;1.90;;;;;;;22.53;44.25;101979.91;104561;1305;72188;-82
2022/05/19 01:04:20;;;;;;;3.00;2.00;;;;;;;22.53;44.26;101983.15;104710;1306;74742;-83
2022/05/19 01:06:47;;;;;;;5.20;2.00;;;;;;;22.54;44.29;101981.17;104708;1306;61010;-85
2022/05/19 01:09:15;;;;;;;4.10;2.00;;;;;;;22.53;44.36;101978.85;104895;1306;61178;-84
2022/05/19 01:11:45;;;;;;;4.10;2.00;;;;;;;22.54;44.33;101982.59;104694;1306;72834;-83
2022/05/19 01:14:13;;;;;;;4.80;1.90;;;;;;;22.53;44.23;101985.13;104587;1306;74380;-81
2022/05/19 01:16:45;;;;;;;3.60;2.10;;;;;;;22.53;44.41;101983.71;104582;1306;61168;-83
2022/05/19 01:19:29;;;;;;;7.70;2.30;;;;;;;22.53;44.35;101977.62;104654;1306;61230;-83
2022/05/19 01:21:56;;;;;;;4.80;2.00;;;;;;;22.53;44.37;101979.06;104879;1306;72644;-83
2022/05/19 01:24:29;;;;;;;3.10;1.80;;;;;;;22.52;44.29;101982.15;104642;1306;75723;-82
2022/05/19 01:26:55;;;;;;;2.60;1.80;;;;;;;22.53;44.37;101982.47;104632;1307;61025;-83
2022/05/19 01:29:34;;;;;;;4.10;2.10;;;;;;;22.53;44.38;101982.30;104762;1306;61304;-83
2022/05/19 01:32:01;;;;;;;5.20;2.30;;;;;;;22.53;44.36;101983.21;104585;1306;72725;-87
2022/05/19 01:34:34;;;;;;;4.00;1.90;;;;;;;22.52;44.33;101983.06;104644;1307;74676;-83
2022/05/19 01:37:03;;;;;;;3.70;2.10;;;;;;;22.52;44.23;101983.55;104796;1306;61367;-83
2022/05/19 01:39:34;;;;;;;3.80;1.80;;;;;;;22.52;44.37;101986.64;104663;1306;61202;-82
2022/05/19 01:42:15;;;;;;;3.90;1.90;;;;;;;22.52;44.30;101983.23;104851;1306;72674;-82
2022/05/19 01:45:42;;;;;;;3.90;2.00;;;;;;;22.52;44.36;101980.20;104857;1305;74892;-82
2022/05/19 01:48:39;;;;;;;5.30;1.90;;;;;;;22.51;44.37;101985.30;104057;1315;61346;-82
2022/05/19 01:51:13;;;;;;;3.60;1.90;;;;;;;22.51;44.42;101986.70;104300;1315;61176;-83
2022/05/19 01:53:54;;;;;;;4.30;1.90;;;;;;;22.51;44.53;101988.51;104283;1315;72671;-83
2022/05/19 01:56:52;;;;;;;3.30;2.00;;;;;;;22.50;44.39;101984.41;104251;1315;75700;-82
2022/05/19 01:59:27;;;;;;;5.80;2.40;;;;;;;22.51;44.49;101986.52;104058;1314;61298;-83
2022/05/19 02:02:21;;;;;;;4.90;2.30;;;;;;;22.50;44.51;101986.21;104216;1314;61507;-83
2022/05/19 02:04:59;;;;;;;4.00;2.00;;;;;;;22.50;44.45;101987.48;104131;1314;73843;-83
2022/05/19 02:07:25;;;;;;;3.10;1.80;;;;;;;22.50;44.58;101987.47;104097;1314;75831;-86
2022/05/19 02:09:55;;;;;;;3.80;2.00;;;;;;;22.50;44.55;101988.90;104221;1315;61287;-84
2022/05/19 02:12:27;;;;;;;4.30;2.00;;;;;;;22.50;44.42;101988.72;104127;1315;62063;-86
2022/05/19 02:15:08;;;;;;;3.30;2.00;;;;;;;22.50;44.43;101990.15;104098;1314;74027;-83
2022/05/19 02:17:33;;;;;;;3.40;1.90;;;;;;;22.50;44.44;101993.06;104203;1315;75063;-83
2022/05/19 02:20:10;;;;;;;3.30;2.00;;;;;;;22.50;44.47;101994.63;104097;1315;61299;-86
2022/05/19 02:22:42;;;;;;;4.60;1.90;;;;;;;22.50;44.45;101996.46;103932;1312;61220;-85
2022/05/19 02:25:19;;;;;;;4.80;2.00;;;;;;;22.50;44.52;101998.98;104842;1306;72177;-82
2022/05/19 02:28:12;;;;;;;2.90;1.90;;;;;;;22.49;44.42;102002.59;104690;1306;73541;-83
2022/05/19 02:30:43;;;;;;;3.60;1.90;;;;;;;22.49;44.55;102003.67;104731;1306;61406;-82
2022/05/19 02:33:15;;;;;;;4.30;2.10;;;;;;;22.49;44.60;102004.94;104741;1306;61288;-81
2022/05/19 02:35:51;;;;;;;3.80;2.00;;;;;;;22.49;44.37;102006.23;104663;1306;72816;-81
2022/05/19 02:38:18;;;;;;;3.30;1.80;;;;;;;22.49;44.40;102012.64;104616;1307;75703;-85
2022/05/19 02:40:51;;;;;;;4.10;1.90;;;;;;;22.49;44.55;102013.20;104655;1306;61575;-83
2022/05/19 02:43:18;;;;;;;3.50;2.10;;;;;;;22.48;44.62;102014.31;104521;1307;61335;-85
2022/05/19 02:45:45;;;;;;;4.90;2.20;;;;;;;22.48;44.52;102012.15;104648;1306;61179;-84
2022/05/19 02:48:13;;;;;;;4.70;2.30;;;;;;;22.48;44.43;102014.15;104549;1306;75792;-85
2022/05/19 02:50:42;;;;;;;4.90;2.10;;;;;;;22.48;44.49;102014.14;104648;1306;61240;-83
2022/05/19 02:53:09;;;;;;;3.80;2.10;;;;;;;22.48;44.48;102023.84;104547;1306;61193;-85
2022/05/19 02:55:34;;;;;;;6.40;2.20;;;;;;;22.48;44.58;102028.32;104479;1306;61346;-83
2022/05/19 02:58:03;;;;;;;3.50;2.20;;;;;;;22.48;44.48;102026.71;104606;1306;61275;-82
2022/05/19 03:00:34;;;;;;;3.40;2.10;;;;;;;22.48;44.47;102027.06;104918;1306;61243;-82
2022/05/19 03:03:00;;;;;;;4.60;2.30;;;;;;;22.48;44.51;102026.20;104653;1306;61105;-83
2022/05/19 03:05:30;;;;;;;5.30;2.50;;;;;;;22.48;44.59;102031.77;104530;1306;61493;-83
2022/05/19 03:07:59;;;;;;;4.70;2.10;;;;;;;22.48;44.56;102032.30;104562;1307;74807;-83
2022/05/19 03:10:36;;;;;;;3.70;2.00;;;;;;;22.47;44.43;102037.16;104657;1306;61606;-83
2022/05/19 03:13:06;;;;;;;3.40;1.90;;;;;;;22.47;44.42;102041.83;104688;1306;61295;-83
2022/05/19 03:15:37;;;;;;;4.70;2.10;;;;;;;22.47;44.63;102040.77;104634;1306;72917;-84
2022/05/19 03:18:06;;;;;;;3.80;2.00;;;;;;;22.47;44.55;102044.34;104702;1306;75030;-83
2022/05/19 03:20:41;;;;;;;4.20;2.10;;;;;;;22.47;44.53;102044.88;104709;1306;61802;-82
2022/05/19 03:23:06;;;;;;;4.40;2.00;;;;;;;22.47;44.60;102042.16;104546;1307;62588;-82
2022/05/19 03:25:35;;;;;;;4.30;2.20;;;;;;;22.47;44.50;102043.46;104667;1305;61286;-84
2022/05/19 03:28:17;;;;;;;3.40;2.20;;;;;;;22.47;44.54;102041.29;104874;1304;73865;-84
2022/05/19 03:30:43;;;;;;;;;;;;;;;22.47;44.57;102043.10;104701;1306;61282;-83
2022/05/19 03:33:09;;;;;;;4.70;1.90;;;;;;;22.44;44.58;102044.16;104922;1306;61421;-82
2022/05/19 03:35:43;;;;;;;4.60;2.30;;;;;;;22.45;44.60;102042.51;104648;1306;73701;-83
2022/05/19 03:38:15;;;;;;;3.60;2.10;;;;;;;22.45;44.58;102046.45;104714;1306;74775;-83
2022/05/19 03:40:47;;;;;;;3.90;1.90;;;;;;;22.45;44.54;102050.23;104583;1306;61285;-83
2022/05/19 03:43:20;;;;;;;3.80;2.30;;;;;;;22.45;44.49;102052.52;104731;1307;61147;-82
2022/05/19 03:45:50;;;;;;;3.60;2.10;;;;;;;22.45;44.39;102053.60;104624;1309;73839;-84
2022/05/19 03:48:24;;;;;;;11.00;2.90;;;;;;;22.45;44.48;102052.54;104422;1309;75075;-85
2022/05/19 03:50:53;;;;;;;9.00;2.80;;;;;;;22.45;44.58;102059.52;104568;1306;61220;-80
2022/05/19 03:53:26;;;;;;;8.20;2.80;;;;;;;22.45;44.30;102059.02;104549;1306;61414;-79
2022/05/19 03:55:54;;;;;;;8.00;3.10;;;;;;;22.44;44.32;102058.52;104606;1306;61278;-82
2022/05/19 03:58:23;;;;;;;3.90;2.50;;;;;;;22.44;44.22;102064.07;104594;1305;75813;-83
2022/05/19 04:00:52;;;;;;;8.30;2.70;;;;;;;22.43;44.10;102061.59;104566;1306;61502;-82
2022/05/19 04:03:20;;;;;;;8.20;2.90;;;;;;;22.43;44.26;102061.80;104847;1305;61645;-84
2022/05/19 04:05:58;;;;;;;5.90;2.40;;;;;;;22.42;44.35;102058.59;104814;1306;72603;-85
2022/05/19 04:08:24;;;;;;;3.90;2.20;;;;;;;22.42;44.13;102056.45;104670;1306;75102;-85
2022/05/19 04:11:06;;;;;;;6.10;2.50;;;;;;;22.41;44.32;102057.02;104562;1306;61231;-83
2022/05/19 04:13:44;;;;;;;6.10;2.80;;;;;;;22.41;44.14;102057.08;104492;1306;61473;-83
2022/05/19 04:16:12;;;;;;;4.70;3.00;;;;;;;22.40;44.25;102058.34;104645;1306;73881;-84
2022/05/19 04:18:46;;;;;;;5.00;3.10;;;;;;;22.39;44.21;102059.48;104577;1306;74836;-87
2022/05/19 04:21:12;;;;;;;6.90;3.20;;;;;;;22.39;44.05;102062.39;104419;1306;61460;-82
2022/05/19 04:23:41;;;;;;;4.60;2.50;;;;;;;22.39;43.91;102067.06;104521;1309;61301;-82
2022/05/19 04:26:09;;;;;;;6.30;2.80;;;;;;;22.38;43.95;102068.54;104496;1306;73828;-84
2022/05/19 04:28:38;;;;;;;5.70;3.10;;;;;;;22.38;43.82;102068.19;104234;1309;75638;-84
2022/05/19 04:31:03;;;;;;;6.20;3.10;;;;;;;22.37;43.72;102065.52;104200;1309;61484;-81
2022/05/19 04:33:29;;;;;;;5.10;3.00;;;;;;;22.36;43.69;102066.28;104267;1307;61428;-83
2022/05/19 04:35:55;;;;;;;6.40;3.00;;;;;;;22.36;43.49;102067.58;104246;1309;61295;-83
2022/05/19 04:38:22;;;;;;;7.70;3.10;;;;;;;22.36;43.31;102065.79;104356;1306;61227;-83
2022/05/19 04:40:50;;;;;;;5.90;3.00;;;;;;;22.35;43.23;102064.91;104288;1306;60393;-83
2022/05/19 04:43:22;;;;;;;6.20;3.10;;;;;;;22.34;43.15;102066.73;104390;1306;61297;-83
2022/05/19 04:45:51;;;;;;;6.90;3.00;;;;;;;22.34;43.12;102065.70;104368;1307;71975;-83
2022/05/19 04:48:16;;;;;;;5.30;2.80;;;;;;;22.33;42.95;102064.32;105212;1306;74822;-83
2022/05/19 04:50:42;;;;;;;5.40;2.90;;;;;;;22.32;42.79;102065.06;104435;1306;60711;-82
2022/05/19 04:53:08;;;;;;;6.10;3.10;;;;;;;22.32;42.57;102067.58;104386;1307;61417;-83
2022/05/19 04:55:37;;;;;;;7.60;3.30;;;;;;;22.31;42.47;102068.52;104325;1307;61285;-82
2022/05/19 04:58:04;;;;;;;6.90;3.10;;;;;;;22.31;42.39;102067.98;104319;1306;74854;-83
2022/05/19 05:00:30;;;;;;;5.50;2.80;;;;;;;22.31;42.34;102069.63;104484;1306;60515;-84
2022/05/19 05:02:56;;;;;;;10.90;3.40;;;;;;;22.30;42.28;102070.04;104505;1306;59827;-81
2022/05/19 05:05:23;;;;;;;9.00;3.50;;;;;;;22.29;42.03;102069.52;104298;1309;61473;-82
2022/05/19 05:07:48;;;;;;;10.60;3.50;;;;;;;22.28;41.87;102070.14;104221;1306;61419;-82
2022/05/19 05:10:14;;;;;;;8.20;3.40;;;;;;;22.27;41.69;102070.16;104300;1306;59579;-81
2022/05/19 05:12:40;;;;;;;9.90;3.80;;;;;;;22.28;41.61;102069.42;104429;1306;62499;-82
2022/05/19 05:15:06;;;;;;;7.30;3.00;;;;;;;22.29;41.57;102069.20;104592;1306;61259;-81
2022/05/19 05:17:32;;;;;;;11.90;3.20;;;;;;;22.30;41.59;102067.14;104535;1306;61413;-80
2022/05/19 05:19:57;;;;;;;7.20;3.10;;;;;;;22.33;41.41;102068.98;104086;1306;72949;-81
2022/05/19 05:22:23;;;;;;;9.50;3.20;;;;;;;22.35;41.55;102068.34;104531;1306;59495;-81
2022/05/19 05:24:49;;;;;;;5.20;2.90;;;;;;;22.37;41.60;102064.85;104468;1306;59542;-81
2022/05/19 05:27:14;;;;;;;10.70;3.30;;;;;;;22.38;41.40;102062.78;104390;1306;59963;-81
2022/05/19 05:29:40;;;;;;;10.70;3.20;;;;;;;22.40;41.41;102062.50;104335;1306;62475;-81
2022/05/19 05:32:06;;;;;;;7.20;3.00;;;;;;;22.41;41.35;102062.05;104367;1307;74855;-81
2022/05/19 05:34:31;;;;;;;7.30;3.00;;;;;;;22.43;41.26;102061.95;104449;1306;61322;-80
2022/05/19 05:36:57;;;;;;;9.90;2.90;;;;;;;22.44;41.21;102062.96;104314;1306;61712;-82
2022/05/19 05:39:22;;;;;;;6.80;3.00;;;;;;;22.46;41.14;102064.31;104320;1306;61196;-83
2022/05/19 05:41:48;;;;;;;8.60;3.20;;;;;;;22.47;41.04;102059.04;104412;1306;61412;-83
2022/05/19 05:44:14;;;;;;;9.90;3.30;;;;;;;22.49;41.03;102058.95;104359;1306;61299;-83
2022/05/19 05:46:40;;;;;;;8.50;2.90;;;;;;;22.50;40.86;102059.25;104369;1306;60395;-83
2022/05/19 05:49:05;;;;;;;6.90;3.10;;;;;;;22.51;40.81;102059.03;104405;1306;61310;-83
2022/05/19 05:51:31;;;;;;;9.80;3.40;;;;;;;22.52;40.82;102054.29;104297;1307;61347;-81
2022/05/19 05:53:56;;;;;;;9.20;3.40;;;;;;;22.51;40.41;102054.72;104286;1306;60673;-81
2022/05/19 05:56:22;;;;;;;7.90;3.20;;;;;;;22.45;40.23;102053.05;104187;1307;61801;-81
2022/05/19 05:58:48;;;;;;;9.30;2.80;;;;;;;22.38;39.93;102058.65;104409;1307;59726;-82
2022/05/19 06:01:14;;;;;;;11.70;3.10;;;;;;;22.31;39.82;102062.80;104166;1306;61442;-82
2022/05/19 06:03:40;;;;;;;8.20;3.10;;;;;;;22.24;39.33;102066.59;104159;1307;73449;-82
2022/05/19 06:06:06;;;;;;;7.50;2.70;;;;;;;22.16;39.11;102065.59;104498;1305;61163;-83
2022/05/19 06:08:32;;;;;;;6.50;2.80;;;;;;;22.04;38.49;102068.08;104338;1309;61360;-83
2022/05/19 06:10:59;;;;;;;5.70;3.00;;;;;;;21.96;38.41;102067.99;104020;1309;61305;-82
2022/05/19 06:13:25;;;;;;;7.40;2.60;;;;;;;21.98;38.59;102068.39;104297;1306;61336;-81
2022/05/19 06:15:52;;;;;;;7.50;2.60;;;;;;;22.03;38.71;102072.27;104000;1306;61249;-82
2022/05/19 06:18:18;;;;;;;6.30;2.80;;;;;;;22.07;38.66;102070.95;104323;1306;61348;-82
2022/05/19 06:20:45;;;;;;;8.50;2.60;;;;;;;22.03;38.20;102072.95;104490;1306;63390;-82
2022/05/19 06:23:10;;;;;;;6.90;2.50;;;;;;;21.96;37.99;102076.03;104323;1306;61720;-82
2022/05/19 06:25:36;;;;;;;10.10;2.50;;;;;;;21.99;38.09;102073.21;104303;1306;61287;-82
2022/05/19 06:28:02;;;;;;;9.90;2.10;;;;;;;22.01;37.92;102074.00;104105;1306;59801;-81
2022/05/19 06:30:28;;;;;;;6.10;2.30;;;;;;;22.05;37.92;102078.04;104147;1306;59590;-83
2022/05/19 06:32:53;;;;;;;9.30;2.60;;;;;;;22.10;37.92;102082.61;104161;1306;60459;-82
2022/05/19 06:35:21;;;;;;;5.30;2.10;;;;;;;22.10;37.57;102084.02;104085;1306;61336;-82
2022/05/19 06:37:47;;;;;;;7.40;2.40;;;;;;;22.10;37.54;102080.06;104243;1306;77119;-82
2022/05/19 06:40:15;;;;;;;7.80;2.70;;;;;;;22.14;37.50;102084.16;104184;1306;61394;-82
2022/05/19 06:42:42;;;;;;;5.70;2.10;;;;;;;22.18;37.55;102083.44;104353;1306;61302;-82
2022/05/19 06:45:08;;;;;;;6.60;2.30;;;;;;;22.21;37.47;102084.34;104102;1306;74189;-81
2022/05/19 06:47:34;;;;;;;6.60;2.40;;;;;;;22.19;37.30;102084.25;103794;1306;61243;-81
2022/05/19 06:50:00;;;;;;;6.20;2.10;;;;;;;22.17;37.24;102082.74;104154;1306;62055;-83
2022/05/19 06:52:30;;;;;;;8.60;2.10;;;;;;;22.09;36.59;102079.65;104172;1307;61325;-81
2022/05/19 06:54:58;;;;;;;7.90;2.10;;;;;;;21.82;36.17;102081.27;104171;1306;72825;-82
2022/05/19 06:57:25;;;;;;;7.40;2.30;;;;;;;21.69;35.85;102079.09;104433;1306;74993;-81
2022/05/19 06:59:51;;;;;;;6.40;2.40;;;;;;;21.61;35.74;102080.25;104130;1306;60557;-82
2022/05/19 07:02:18;;;;;;;4.90;1.90;;;;;;;21.58;35.78;102081.46;104317;1307;61138;-84
2022/05/19 07:04:46;;;;;;;5.10;2.20;;;;;;;21.54;35.54;102078.83;104055;1309;73982;-83
2022/05/19 07:07:12;;;;;;;5.40;2.20;;;;;;;21.53;35.58;102077.44;104276;1309;73733;-82
2022/05/19 07:09:38;;;;;;;5.30;2.00;;;;;;;21.53;35.33;102074.92;104411;1306;61197;-80
2022/05/19 07:12:05;;;;;;;8.80;2.20;;;;;;;21.51;35.41;102078.07;104475;1306;61419;-83
2022/05/19 07:14:31;;;;;;;4.10;1.80;;;;;;;21.57;35.60;102079.55;104609;1306;61399;-81
2022/05/19 07:16:56;;;;;;;4.50;2.70;;;;;;;21.66;35.90;102079.63;104445;1305;61073;-82
2022/05/19 07:22:08;;;;;;;18.20;2.60;;;;;;;21.85;36.09;102079.11;104494;1306;61194;-83
2022/05/19 07:24:33;;;;;;;22.50;3.20;;;;;;;21.92;36.74;102078.55;104532;1306;72860;-82
2022/05/19 07:26:59;;;;;;;21.30;2.80;;;;;;;22.01;37.39;102078.11;104288;1306;61430;-82
2022/05/19 07:29:25;;;;;;;12.40;2.50;;;;;;;22.05;37.84;102082.67;104476;1306;61464;-83
2022/05/19 07:31:51;;;;;;;6.50;2.00;;;;;;;22.08;37.69;102073.75;105206;1306;59755;-83
2022/05/19 07:34:19;;;;;;;6.60;2.20;;;;;;;22.11;37.41;102075.73;104701;1306;59590;-82
2022/05/19 07:36:45;;;;;;;6.60;2.00;;;;;;;22.14;37.27;102078.80;104529;1306;61768;-82
2022/05/19 07:39:13;;;;;;;2.80;1.70;;;;;;;22.15;36.91;102080.56;104409;1306;61362;-81
2022/05/19 07:41:40;;;;;;;8.90;1.90;;;;;;;22.15;36.46;102081.30;104501;1306;60390;-82
2022/05/19 07:44:07;;;;;;;3.90;2.00;;;;;;;22.08;36.06;102079.66;104389;1306;59329;-82
2022/05/19 07:46:33;;;;;;;6.00;2.30;;;;;;;22.05;35.67;102080.35;104416;1307;76086;-83
2022/05/19 07:48:58;;;;;;;5.20;1.80;;;;;;;22.07;35.59;102076.82;104347;1309;61214;-81
2022/05/19 07:51:36;;;;;;;6.60;1.80;;;;;;;22.10;35.48;102079.89;104108;1309;61406;-80
2022/05/19 07:54:14;;;;;;;5.00;2.00;;;;;;;22.09;35.04;102076.38;104296;1306;72767;-82
2022/05/19 07:56:40;;;;;;;3.70;1.80;;;;;;;22.05;34.68;102074.25;103676;1306;74789;-82
2022/05/19 07:59:08;;;;;;;6.10;1.70;;;;;;;21.99;34.38;102069.78;103623;1306;61369;-82
2022/05/19 08:01:34;;;;;;;3.80;1.60;;;;;;;21.96;34.11;102072.43;104589;1306;61399;-82
2022/05/19 08:03:59;;;;;;;12.40;2.10;;;;;;;21.96;33.87;102070.81;104487;1306;61284;-81
2022/05/19 08:06:28;;;;;;;5.50;1.90;;;;;;;21.92;33.72;102072.28;104430;1306;61217;-82
2022/05/19 08:08:54;;;;;;;4.00;1.80;;;;;;;21.92;33.79;102078.03;105102;1306;60820;-82
2022/05/19 08:11:19;;;;;;;10.80;2.10;;;;;;;21.96;33.78;102071.53;105271;1305;59921;-82
2022/05/19 08:16:29;;;;;;;8.10;2.10;;;;;;;21.99;33.56;102078.73;104395;1306;75747;-81
2022/05/19 08:18:56;;;;;;;11.30;1.70;;;;;;;22.00;33.52;102078.48;104490;1306;61283;-81
2022/05/19 08:21:22;;;;;;;5.90;2.20;;;;;;;22.03;33.50;102074.04;104473;1306;60149;-82
2022/05/19 08:23:52;;;;;;;6.60;2.00;;;;;;;22.05;33.38;102071.95;104540;1306;61323;-84
2022/05/19 08:26:17;;;;;;;;;;;;;;;22.03;32.99;102065.59;105106;1306;74745;-82
2022/05/19 08:28:43;;;;;;;10.70;2.00;;;;;;;21.95;33.09;102066.05;104621;1306;61390;-83
2022/05/19 08:31:16;;;;;;;4.30;2.00;;;;;;;21.87;32.73;102064.88;104399;1306;61343;-82
2022/05/19 08:33:45;;;;;;;4.60;1.80;;;;;;;21.80;32.72;102059.16;104607;1306;73779;-82
2022/05/19 08:36:11;;;;;;;6.70;1.60;;;;;;;21.76;32.71;102059.73;104576;1306;74800;-81
2022/05/19 08:38:37;;;;;;;7.10;2.00;;;;;;;21.74;32.74;102060.75;104486;1306;61265;-81
2022/05/19 08:41:06;;;;;;;4.40;1.90;;;;;;;21.75;32.69;102059.07;104464;1306;59685;-83
2022/05/19 08:43:59;;;;;;;5.00;1.80;;;;;;;21.78;32.80;102054.05;104625;1305;73760;-82
2022/05/19 08:46:32;;;;;;;3.50;1.80;;;;;;;21.81;32.62;102058.25;104570;1306;74377;-82
2022/05/19 08:49:02;;;;;;;9.40;1.70;;;;;;;21.81;32.41;102053.53;104541;1306;61193;-82
2022/05/19 08:51:37;;;;;;;6.60;1.80;;;;;;;21.84;32.41;102051.59;104898;1305;60295;-82
2022/05/19 08:54:04;;;;;;;7.60;2.40;;;;;;;21.85;32.27;102052.59;105036;1306;73774;-82
2022/05/19 08:56:36;;;;;;;5.40;1.90;;;;;;;21.79;32.19;102053.09;105098;1306;75141;-82
2022/05/19 08:59:26;;;;;;;18.80;2.10;;;;;;;21.77;32.11;102048.23;105095;1306;61443;-82
2022/05/19 09:01:54;;;;;;;8.00;1.80;;;;;;;21.80;32.17;102046.45;104527;1306;61524;-83
2022/05/19 09:04:48;;;;;;;7.60;1.80;;;;;;;21.84;32.39;102048.91;104282;1307;72684;-81
2022/05/19 09:10:08;;;;;;;8.80;1.80;;;;;;;21.80;32.31;102044.32;104461;1309;61233;-81
2022/05/19 09:12:41;;;;;;;21.50;2.20;;;;;;;21.76;31.93;102040.37;104482;1309;61314;-81
2022/05/19 09:15:08;;;;;;;9.40;1.90;;;;;;;21.73;31.98;102036.61;104258;1309;73382;-81
2022/05/19 09:17:36;;;;;;;14.10;2.30;;;;;;;21.74;31.90;102041.20;103652;1309;74824;-81
2022/05/19 09:20:06;;;;;;;6.70;2.00;;;;;;;21.76;31.94;102041.08;104083;1305;61304;-80
2022/05/19 09:22:33;;;;;;;4.50;1.90;;;;;;;21.77;32.04;102043.55;104226;1306;61263;-80
2022/05/19 09:25:02;;;;;;;6.40;1.90;;;;;;;21.74;31.92;102035.50;104512;1306;75466;-81
2022/05/19 09:27:30;;;;;;;5.70;2.10;;;;;;;21.68;31.65;102033.28;104670;1306;75983;-84
2022/05/19 09:29:57;;;;;;;6.50;2.10;;;;;;;21.65;31.67;102037.41;104495;1305;61360;-83
2022/05/19 09:32:24;;;;;;;5.60;2.20;;;;;;;21.68;31.80;102032.73;105412;1306;60038;-84
2022/05/19 09:34:51;;;;;;;7.60;1.90;;;;;;;21.72;31.82;102031.44;104888;1306;72774;-83
2022/05/19 09:37:29;;;;;;;9.20;2.50;;;;;;;21.74;31.86;102028.68;105367;1306;75068;-84
2022/05/19 09:40:37;;;;;;;5.00;2.10;;;;;;;21.75;31.80;102027.15;105288;1305;60296;-83
2022/05/19 09:43:08;;;;;;;9.40;2.30;;;;;;;21.70;31.70;102023.52;105181;1305;61190;-81
2022/05/19 09:45:41;;;;;;;7.90;2.10;;;;;;;21.65;31.59;102020.59;104398;1305;72911;-81
2022/05/19 09:48:08;;;;;;;14.60;2.40;;;;;;;21.57;31.47;102022.04;104346;1306;75083;-82
2022/05/19 09:50:42;;;;;;;12.80;2.20;;;;;;;21.55;31.71;102023.59;104382;1306;61253;-81
2022/05/19 09:53:22;;;;;;;8.70;2.30;;;;;;;21.60;31.81;102023.15;104440;1306;61294;-81
2022/05/19 09:55:56;;;;;;;8.30;2.00;;;;;;;21.63;31.59;102027.27;103764;1306;72836;-82
2022/05/19 09:58:22;;;;;;;16.50;1.90;;;;;;;21.58;31.35;102020.58;105065;1306;75131;-82
2022/05/19 10:00:54;;;;;;;13.90;2.20;;;;;;;21.54;31.20;102019.36;105346;1305;59302;-82
2022/05/19 10:03:37;;;;;;;10.90;2.10;;;;;;;21.56;31.70;102019.40;105065;1306;60635;-82
2022/05/19 10:06:05;;;;;;;9.10;2.00;;;;;;;21.56;31.43;102010.27;104727;1306;73108;-82
2022/05/19 10:08:36;;;;;;;6.90;1.90;;;;;;;21.51;31.35;102010.89;104500;1306;73809;-82
2022/05/19 10:11:14;;;;;;;6.40;2.00;;;;;;;21.48;31.12;102010.02;104335;1306;61140;-84
2022/05/19 10:13:43;;;;;;;7.70;2.00;;;;;;;21.48;31.05;102007.86;104535;1306;60868;-81
2022/05/19 10:16:18;;;;;;;13.60;2.10;;;;;;;21.49;31.17;102002.61;104619;1305;74200;-82
2022/05/19 10:19:05;;;;;;;7.30;2.00;;;;;;;21.47;30.87;101999.48;104704;1306;74789;-83
2022/05/19 10:22:00;;;;;;;6.80;2.70;;;;;;;21.46;30.82;102000.04;104598;1305;61345;-82
2022/05/19 10:24:50;;;;;;;4.80;1.80;;;;;;;21.41;30.78;101999.05;104637;1306;61219;-83
2022/05/19 10:31:05;;;;;;;13.50;2.00;;;;;;;21.43;31.11;101991.07;104720;1305;75834;-83
2022/05/19 10:33:49;;;;;;;10.40;2.00;;;;;;;21.50;31.34;101985.34;104016;1314;61280;-82
2022/05/19 10:36:39;;;;;;;6.80;2.00;;;;;;;21.57;31.55;101984.43;104018;1313;60479;-83
2022/05/19 10:39:20;;;;;;;7.30;2.40;;;;;;;21.62;31.42;101984.89;104155;1315;72637;-82
2022/05/19 10:42:27;;;;;;;6.90;1.90;;;;;;;21.66;31.45;101992.55;104001;1314;74982;-83
2022/05/19 10:45:11;;;;;;;10.60;2.30;;;;;;;21.71;31.77;101982.80;104380;1315;60601;-82
2022/05/19 10:48:15;;;;;;;7.70;2.00;;;;;;;21.80;31.87;101971.92;104751;1313;61780;-83
2022/05/19 10:51:15;;;;;;;5.90;2.00;;;;;;;21.80;31.78;101974.03;104539;1314;72470;-81
2022/05/19 10:54:01;;;;;;;6.80;1.90;;;;;;;21.84;31.98;101977.23;103862;1318;74949;-82
2022/05/19 10:56:45;;;;;;;13.60;2.10;;;;;;;21.83;31.64;101974.42;103649;1320;61333;-82
2022/05/19 10:59:45;;;;;;;13.50;2.20;;;;;;;21.81;31.52;101977.40;104002;1319;60345;-82
2022/05/19 11:02:22;;;;;;;10.60;1.90;;;;;;;21.82;31.60;101970.88;103441;1323;74179;-82
2022/05/19 11:05:20;;;;;;;4.30;1.80;;;;;;;21.80;31.31;101969.73;103586;1323;74718;-82
2022/05/19 11:08:04;;;;;;;6.10;2.20;;;;;;;21.74;31.01;101966.85;103464;1324;60431;-82
2022/05/19 11:10:59;;;;;;;5.10;1.70;;;;;;;21.71;30.86;101964.13;103597;1320;60596;-81
2022/05/19 11:13:51;;;;;;;6.80;1.90;;;;;;;21.70;30.96;101956.13;104013;1320;74397;-82
2022/05/19 11:16:17;;;;;;;3.80;1.90;;;;;;;21.65;30.72;101947.99;104015;1320;76191;-82
2022/05/19 11:18:56;;;;;;;4.00;1.90;;;;;;;21.69;30.78;101949.40;104062;1320;59478;-82
2022/05/19 11:21:32;;;;;;;10.70;2.00;;;;;;;21.76;31.03;101945.07;103839;1320;61406;-82
2022/05/19 11:24:32;;;;;;;7.90;2.10;;;;;;;21.81;31.05;101935.64;103180;1320;1004496;-82
2022/05/19 11:27:11;;;;;;;5.80;2.10;;;;;;;21.86;31.19;101936.98;103910;1320;74598;-82
2022/05/19 11:29:41;;;;;;;;;;;;;;;21.91;31.48;101936.14;103491;1314;61284;-82
2022/05/19 11:32:16;;;;;;;8.60;2.30;;;;;;;21.91;31.52;101930.42;104002;1314;61317;-81
2022/05/19 11:35:05;;;;;;;5.60;1.90;;;;;;;21.94;31.55;101926.27;103768;1314;72641;-82
2022/05/19 11:37:50;;;;;;;6.90;2.00;;;;;;;21.92;31.16;101917.44;104104;1314;74639;-83
2022/05/19 11:40:42;;;;;;;13.30;2.00;;;;;;;21.94;31.34;101916.44;104171;1308;61377;-83
2022/05/19 11:43:27;;;;;;;23.40;2.90;;;;;;;22.00;31.73;101915.77;104133;1309;61408;-82
2022/05/19 11:46:02;;;;;;;7.30;2.00;;;;;;;22.05;32.17;101915.84;103897;1306;73991;-82
2022/05/19 11:55:22;;;;;;;10.50;2.50;;;;;;;21.93;31.99;101906.63;104466;1308;61664;-82
2022/05/19 11:57:59;;;;;;;5.50;2.00;;;;;;;21.96;32.02;101901.11;104387;1308;73716;-80
2022/05/19 12:00:26;;;;;;;14.70;2.80;;;;;;;21.98;31.99;101899.71;105524;1300;75958;-82